KSUS/SUS METAR and TAF weather

Enter ICAO airport designator
Station Type Date Time Source
KSUS METAR 2019/12/08 03:54 UTC NOAA

KSUS 080354Z 00000KT 10SM CLR 02/00 A3017 RMK AO2 SLP223 T00220000 $


Station Type Date Time Source
KSUS Decoded METAR 2019/12/08 03:54 UTC NOAA

SPIRIT OF ST. LOUIS AIRPORT , MO, United States (KSUS) 38-39N 090-39W 141M
Dec 07, 2019 - 10:54 PM EST / 2019.12.08 0354 UTC
Wind: Calm:0
Visibility: 10 mile(s):0
Sky conditions: clear
Temperature: 36.0 F (2.2 C)
Dew Point: 32.0 F (0.0 C)
Relative Humidity: 85%
Pressure (altimeter): 30.17 in. Hg (1021 hPa)
ob: KSUS 080354Z 00000KT 10SM CLR 02/00 A3017 RMK AO2 SLP223 T00220000
cycle: 4

Station Type Date Time Source
KSUS TAF 2019/12/07 18:22 UTC NOAA

TAF KSUS 071720Z 0718/0818 15006KT P6SM SKC

Example: see airport list